Time;durP1;ratioP1;P1;durP2;ratioP2;P2;SDS_P1;SDS_P2;PMS_P1;PMS_P2;Temp;Humidity;BMP_temperature;BMP_pressure;BME280_temperature;BME280_humidity;BME280_pressure;Samples;Min_cycle;Max_cycle;Signal;HPM_P1;HPM_P2
2023/08/19 00:01:05;;;;;;;;;;;;;;;23.45;60.73;101248.25;5063287;28;19924;-44
2023/08/19 00:03:31;;;;;;;;;;;;;;;23.45;60.62;101247.41;5063135;28;19913;-47
2023/08/19 00:06:04;;;;;;;;;;;;;;;23.45;60.66;101247.41;5062752;28;19917;-46
2023/08/19 00:08:29;;;;;;;;;;;;;;;23.45;60.63;101248.25;5063613;28;19970;-44
2023/08/19 00:10:55;;;;;;;;;;;;;;;23.44;60.49;101243.84;5063196;28;20359;-46
2023/08/19 00:13:20;;;;;;;;;;;;;;;23.44;60.51;101243.00;5062942;28;19966;-44
2023/08/19 00:15:45;;;;;;;;;;;;;;;23.44;60.72;101237.56;5063185;28;19912;-46
2023/08/19 00:18:10;;;;;;;;;;;;;;;23.43;60.62;101246.75;5063412;28;19928;-46
2023/08/19 00:20:36;;;;;;;;;;;;;;;23.43;60.70;101238.59;5063072;28;20340;-46
2023/08/19 00:23:01;;;;;;;;;;;;;;;23.42;60.54;101237.78;5062292;28;19947;-46
2023/08/19 00:25:27;;;;;;;;;;;;;;;23.43;60.49;101238.59;5064714;28;19913;-46
2023/08/19 00:27:52;;;;;;;;;;;;;;;23.42;60.52;101232.34;5066405;28;19935;-45
2023/08/19 00:30:17;;;;;;;;;;;;;;;23.42;60.61;101234.22;5067054;28;19951;-47
2023/08/19 00:32:43;;;;;;;;;;;;;;;23.42;60.71;101242.38;5066691;28;19921;-45
2023/08/19 00:35:08;;;;;;;;;;;;;;;23.42;60.58;101239.66;5065960;28;19920;-45
2023/08/19 00:37:35;;;;;;;;;;;;;;;23.41;60.51;101243.41;5066768;28;19913;-46
2023/08/19 00:40:00;;;;;;;;;;;;;;;23.40;60.52;101228.97;5066690;28;19948;-45
2023/08/19 00:42:26;;;;;;;;;;;;;;;23.40;60.65;101236.28;5065893;28;19913;-45
2023/08/19 00:44:51;;;;;;;;;;;;;;;23.40;60.58;101244.41;5066184;28;19923;-45
2023/08/19 00:47:16;;;;;;;;;;;;;;;23.40;60.45;101236.28;5066521;28;19943;-48
2023/08/19 00:49:41;;;;;;;;;;;;;;;23.40;60.45;101244.41;5066366;28;19931;-49
2023/08/19 00:52:07;;;;;;;;;;;;;;;23.39;60.50;101240.84;5065610;28;19921;-49
2023/08/19 00:54:32;;;;;;;;;;;;;;;23.39;60.31;101243.56;5098616;28;19913;-47
2023/08/19 00:56:57;;;;;;;;;;;;;;;23.39;60.63;101248.16;5065681;28;19917;-45
2023/08/19 00:59:22;;;;;;;;;;;;;;;23.39;60.44;101242.72;5066499;28;19932;-48
2023/08/19 01:01:47;;;;;;;;;;;;;;;23.38;60.32;101236.47;5066138;28;19913;-46
2023/08/19 01:04:13;;;;;;;;;;;;;;;23.39;60.58;101240.03;5065668;28;19920;-46
2023/08/19 01:06:38;;;;;;;;;;;;;;;23.38;60.54;101235.63;5065914;28;19940;-45
2023/08/19 01:09:06;;;;;;;;;;;;;;;23.37;60.41;101223.94;5066199;28;19956;-45
2023/08/19 01:11:32;;;;;;;;;;;;;;;23.38;60.52;101232.91;5065669;28;19917;-49
2023/08/19 01:14:17;;;;;;;;;;;;;;;23.37;60.60;101232.09;5065763;28;19963;-47
2023/08/19 01:16:43;;;;;;;;;;;;;;;23.38;60.58;101235.63;5065143;28;19913;-45
2023/08/19 01:19:08;;;;;;;;;;;;;;;23.38;60.48;101230.22;5097365;28;19913;-48
2023/08/19 01:21:34;;;;;;;;;;;;;;;23.37;60.52;101229.38;5097175;28;19921;-45
2023/08/19 01:23:59;;;;;;;;;;;;;;;23.37;60.46;101226.66;5065740;28;19924;-45
2023/08/19 01:26:24;;;;;;;;;;;;;;;23.37;60.39;101231.25;5064103;28;19923;-50
2023/08/19 01:28:50;;;;;;;;;;;;;;;23.36;60.41;101235.84;5097751;28;19912;-48
2023/08/19 01:31:15;;;;;;;;;;;;;;;23.37;60.46;101228.53;5065205;28;19916;-49
2023/08/19 01:33:40;;;;;;;;;;;;;;;23.36;60.44;101230.41;5098124;28;19932;-46
2023/08/19 01:36:12;;;;;;;;;;;;;;;23.35;60.49;101225.16;5064173;28;19913;-46
2023/08/19 01:38:56;;;;;;;;;;;;;;;23.35;60.45;101219.72;5065148;28;19917;-46
2023/08/19 01:41:22;;;;;;;;;;;;;;;23.35;60.43;101214.28;5063939;28;19912;-46
2023/08/19 01:43:48;;;;;;;;;;;;;;;23.35;60.42;101214.28;5063809;28;19917;-46
2023/08/19 01:46:13;;;;;;;;;;;;;;;23.36;60.28;101213.25;5064882;28;19920;-45
2023/08/19 01:48:38;;;;;;;;;;;;;;;23.35;60.30;101214.28;5065086;28;19923;-46
2023/08/19 01:51:03;;;;;;;;;;;;;;;23.35;60.17;101208.88;5065117;28;19917;-47
2023/08/19 01:53:28;;;;;;;;;;;;;;;23.35;60.26;101214.28;5065326;28;19927;-46
2023/08/19 01:55:54;;;;;;;;;;;;;;;23.33;60.38;101206.34;5097134;28;19921;-44
2023/08/19 01:58:19;;;;;;;;;;;;;;;23.35;60.29;101198.03;5064386;28;19935;-47
2023/08/19 02:00:44;;;;;;;;;;;;;;;23.34;60.41;101205.31;5064734;28;19921;-48
2023/08/19 02:03:10;;;;;;;;;;;;;;;23.34;60.27;101197.19;5065006;28;20067;-48
2023/08/19 02:05:35;;;;;;;;;;;;;;;23.34;60.49;101201.78;5064463;28;19924;-45
2023/08/19 02:08:00;;;;;;;;;;;;;;;23.33;60.32;101190.09;5065030;28;19923;-45
2023/08/19 02:10:25;;;;;;;;;;;;;;;23.33;60.24;101194.66;5064388;28;19913;-44
2023/08/19 02:12:50;;;;;;;;;;;;;;;23.33;60.21;101194.66;5064263;28;19964;-46
2023/08/19 02:15:16;;;;;;;;;;;;;;;23.33;60.45;101198.22;5064604;28;19936;-46
2023/08/19 02:17:41;;;;;;;;;;;;;;;23.33;60.39;101197.38;5064866;28;19927;-44
2023/08/19 02:20:06;;;;;;;;;;;;;;;23.33;60.37;101190.09;5064482;28;19992;-45
2023/08/19 02:22:31;;;;;;;;;;;;;;;23.32;60.35;101184.81;5064419;28;20267;-48
2023/08/19 02:24:57;;;;;;;;;;;;;;;23.32;60.33;101188.41;5064486;28;20305;-46
2023/08/19 02:27:22;;;;;;;;;;;;;;;23.33;60.36;101175.69;5064065;28;20374;-45
2023/08/19 02:29:47;;;;;;;;;;;;;;;23.33;60.29;101175.69;5063800;28;19936;-45
2023/08/19 02:32:12;;;;;;;;;;;;;;;23.33;60.38;101167.53;5064425;28;19913;-48
2023/08/19 02:34:37;;;;;;;;;;;;;;;23.32;60.25;101166.69;5063963;28;19964;-45
2023/08/19 02:37:03;;;;;;;;;;;;;;;23.31;60.21;101165.00;5064179;28;19955;-45
2023/08/19 02:39:28;;;;;;;;;;;;;;;23.32;60.28;101165.84;5064133;28;19976;-44
2023/08/19 02:41:53;;;;;;;;;;;;;;;23.31;60.31;101159.56;5063971;28;19948;-45
2023/08/19 02:44:18;;;;;;;;;;;;;;;23.32;60.16;101165.84;5062828;28;19962;-45
2023/08/19 02:46:43;;;;;;;;;;;;;;;23.31;60.31;101164.16;5063770;28;19917;-44
2023/08/19 02:49:09;;;;;;;;;;;;;;;23.31;60.16;101164.16;5064052;28;19935;-44
2023/08/19 02:51:34;;;;;;;;;;;;;;;23.30;60.03;101163.31;5063850;28;19917;-44
2023/08/19 02:53:59;;;;;;;;;;;;;;;23.30;60.14;101152.47;5064171;28;19920;-45
2023/08/19 02:56:25;;;;;;;;;;;;;;;23.30;60.35;101154.34;5063579;28;19916;-46
2023/08/19 02:58:50;;;;;;;;;;;;;;;23.29;60.15;101150.78;5063514;28;19956;-46
2023/08/19 03:01:15;;;;;;;;;;;;;;;23.30;60.23;101154.34;5063938;28;19920;-45
2023/08/19 03:03:40;;;;;;;;;;;;;;;23.30;60.21;101148.91;5064014;28;19916;-44
2023/08/19 03:06:06;;;;;;;;;;;;;;;23.29;60.13;101153.50;5063201;28;20003;-44
2023/08/19 03:08:31;;;;;;;;;;;;;;;23.28;60.11;101151.84;5063530;28;19988;-44
2023/08/19 03:10:56;;;;;;;;;;;;;;;23.29;60.27;101161.66;5063753;28;20255;-45
2023/08/19 03:13:21;;;;;;;;;;;;;;;23.28;60.14;101157.25;5063293;28;19939;-49
2023/08/19 03:15:47;;;;;;;;;;;;;;;23.29;59.97;101158.94;5063546;28;19947;-44
2023/08/19 03:18:14;;;;;;;;;;;;;;;23.28;60.18;101154.56;5063716;28;19913;-46
2023/08/19 03:20:39;;;;;;;;;;;;;;;23.28;60.11;101149.13;5063866;28;19919;-45
2023/08/19 03:23:05;;;;;;;;;;;;;;;23.28;60.17;101142.84;5063456;28;20356;-46
2023/08/19 03:25:30;;;;;;;;;;;;;;;23.28;60.08;101146.41;5063503;28;19990;-44
2023/08/19 03:27:56;;;;;;;;;;;;;;;23.28;60.29;101142.84;5063065;28;20297;-47
2023/08/19 03:30:21;;;;;;;;;;;;;;;23.28;60.18;101142.84;5063663;28;19917;-44
2023/08/19 03:32:46;;;;;;;;;;;;;;;23.27;60.09;101133.84;5063587;28;19921;-46
2023/08/19 03:35:11;;;;;;;;;;;;;;;23.27;60.18;101125.72;5062998;28;19913;-45
2023/08/19 03:37:36;;;;;;;;;;;;;;;23.26;60.03;101132.19;5063303;28;19913;-44
2023/08/19 03:40:02;;;;;;;;;;;;;;;23.27;60.26;101138.44;5063741;28;19913;-47
2023/08/19 03:42:27;;;;;;;;;;;;;;;23.27;60.01;101130.31;5063536;28;19913;-45
2023/08/19 03:44:53;;;;;;;;;;;;;;;23.27;59.99;101139.28;5063309;28;19917;-44
2023/08/19 03:47:18;;;;;;;;;;;;;;;23.26;60.25;101134.91;5063942;28;20403;-46
2023/08/19 03:49:43;;;;;;;;;;;;;;;23.26;60.13;101139.47;5063689;28;19913;-45
2023/08/19 03:52:08;;;;;;;;;;;;;;;23.26;60.00;101140.31;5063248;28;19943;-44
2023/08/19 03:54:34;;;;;;;;;;;;;;;23.26;60.18;101143.03;5062903;28;19913;-44
2023/08/19 03:56:59;;;;;;;;;;;;;;;23.26;60.20;101140.31;5063092;28;19912;-46
2023/08/19 03:59:24;;;;;;;;;;;;;;;23.25;60.13;101138.66;5063479;28;19921;-44
2023/08/19 04:01:49;;;;;;;;;;;;;;;23.26;60.01;101144.91;5066702;28;19924;-47
2023/08/19 04:04:15;;;;;;;;;;;;;;;23.26;59.82;101142.19;5066993;28;19917;-46
2023/08/19 04:06:40;;;;;;;;;;;;;;;23.25;60.23;101133.22;5064507;28;19920;-44
2023/08/19 04:09:06;;;;;;;;;;;;;;;23.26;59.92;101137.59;5067240;28;19917;-45
2023/08/19 04:11:31;;;;;;;;;;;;;;;23.25;60.03;101141.34;5066466;28;19917;-45
2023/08/19 04:13:57;;;;;;;;;;;;;;;23.26;60.06;101136.78;5066730;28;19927;-46
2023/08/19 04:16:23;;;;;;;;;;;;;;;23.25;59.82;101141.34;5063684;28;19917;-45
2023/08/19 04:18:49;;;;;;;;;;;;;;;23.25;60.12;101144.06;5066549;28;20277;-45
2023/08/19 04:21:14;;;;;;;;;;;;;;;23.24;59.86;101142.41;5066382;28;19958;-46
2023/08/19 04:23:39;;;;;;;;;;;;;;;23.23;59.98;101140.69;5066740;28;19920;-46
2023/08/19 04:26:04;;;;;;;;;;;;;;;23.25;59.94;101149.50;5066558;28;20395;-47
2023/08/19 04:28:31;;;;;;;;;;;;;;;23.25;60.16;101141.34;5065551;28;20222;-47
2023/08/19 04:31:03;;;;;;;;;;;;;;;23.24;60.00;101134.25;5066678;28;19917;-44
2023/08/19 04:33:29;;;;;;;;;;;;;;;23.25;60.21;101138.66;5066520;28;19917;-44
2023/08/19 04:35:54;;;;;;;;;;;;;;;23.25;60.17;101143.25;5065310;28;19921;-44
2023/08/19 04:38:19;;;;;;;;;;;;;;;23.25;60.20;101148.66;5066438;28;19991;-46
2023/08/19 04:40:46;;;;;;;;;;;;;;;23.25;59.96;101140.53;5065912;28;19923;-46
2023/08/19 04:43:11;;;;;;;;;;;;;;;23.25;60.13;101143.25;5066455;28;19967;-47
2023/08/19 04:45:36;;;;;;;;;;;;;;;23.24;60.11;101147.81;5065177;28;20300;-45
2023/08/19 04:48:01;;;;;;;;;;;;;;;23.24;60.26;101142.41;5066230;28;19917;-45
2023/08/19 04:50:27;;;;;;;;;;;;;;;23.24;60.17;101134.25;5062659;28;19962;-46
2023/08/19 04:52:52;;;;;;;;;;;;;;;23.25;60.38;101135.09;5066587;28;19924;-45
2023/08/19 04:55:17;;;;;;;;;;;;;;;23.25;60.27;101140.53;5066247;28;19941;-44
2023/08/19 04:57:42;;;;;;;;;;;;;;;23.23;60.36;101137.97;5065301;28;19995;-45
2023/08/19 05:00:12;;;;;;;;;;;;;;;23.25;60.50;101137.81;5065550;28;19920;-45
2023/08/19 05:02:37;;;;;;;;;;;;;;;23.24;60.46;101147.81;5064847;28;19938;-44
2023/08/19 05:05:03;;;;;;;;;;;;;;;23.25;60.32;101154.09;5064900;28;19930;-45
2023/08/19 05:07:28;;;;;;;;;;;;;;;23.25;60.48;101152.22;5062060;28;19919;-44
2023/08/19 05:09:53;;;;;;;;;;;;;;;23.24;60.51;101153.25;5097759;28;19972;-43
2023/08/19 05:12:18;;;;;;;;;;;;;;;23.24;60.67;101150.53;5064602;28;19923;-45
2023/08/19 05:14:44;;;;;;;;;;;;;;;23.24;60.67;101158.69;5065830;28;19916;-44
2023/08/19 05:17:09;;;;;;;;;;;;;;;23.23;60.74;101156.97;5065779;28;19924;-45
2023/08/19 05:19:36;;;;;;;;;;;;;;;23.24;60.58;101155.97;5065322;28;19917;-43
2023/08/19 05:22:01;;;;;;;;;;;;;;;23.24;60.81;101161.38;5065325;28;19913;-45
2023/08/19 05:24:26;;;;;;;;;;;;;;;23.24;60.74;101152.41;5065683;28;19996;-44
2023/08/19 05:26:51;;;;;;;;;;;;;;;23.24;60.70;101153.25;5065305;28;19921;-43
2023/08/19 05:29:17;;;;;;;;;;;;;;;23.24;60.84;101147.81;5065006;28;19924;-44
2023/08/19 05:31:42;;;;;;;;;;;;;;;23.24;60.82;101147.81;5065188;28;19920;-43
2023/08/19 05:34:08;;;;;;;;;;;;;;;23.24;60.90;101153.25;5065057;28;19923;-44
2023/08/19 05:36:33;;;;;;;;;;;;;;;23.25;60.64;101159.50;5065253;28;19916;-44
2023/08/19 05:38:58;;;;;;;;;;;;;;;23.24;60.76;101166.81;5065373;28;19913;-44
2023/08/19 05:41:23;;;;;;;;;;;;;;;23.24;60.89;101185.81;5065167;28;19921;-46
2023/08/19 05:43:48;;;;;;;;;;;;;;;23.25;60.90;101184.75;5065030;28;19920;-43
2023/08/19 05:46:14;;;;;;;;;;;;;;;23.25;61.05;101186.63;5065008;28;20044;-45
2023/08/19 05:48:39;;;;;;;;;;;;;;;23.24;61.22;101177.66;5064997;28;19940;-46
2023/08/19 05:51:04;;;;;;;;;;;;;;;23.25;61.15;101181.22;5064999;28;19917;-46
2023/08/19 05:53:29;;;;;;;;;;;;;;;23.25;61.24;101195.63;5065066;28;19944;-45
2023/08/19 05:55:55;;;;;;;;;;;;;;;23.25;60.97;101192.06;5063797;28;19921;-45
2023/08/19 05:58:20;;;;;;;;;;;;;;;23.25;61.00;101194.78;5053390;28;19917;-44
2023/08/19 06:00:45;;;;;;;;;;;;;;;23.25;61.18;101197.50;5065033;28;19960;-45
2023/08/19 06:03:10;;;;;;;;;;;;;;;23.25;61.38;101201.03;5064937;28;19917;-46
2023/08/19 06:05:35;;;;;;;;;;;;;;;23.24;61.28;101191.22;5064712;28;19962;-46
2023/08/19 06:08:01;;;;;;;;;;;;;;;23.24;61.38;101180.38;5064691;28;20267;-44
2023/08/19 06:10:26;;;;;;;;;;;;;;;23.25;61.31;101181.22;5064706;28;19917;-44
2023/08/19 06:12:51;;;;;;;;;;;;;;;23.24;61.33;101180.38;5064129;28;20424;-45
2023/08/19 06:15:16;;;;;;;;;;;;;;;23.25;61.42;101173.91;5064620;28;19920;-46
2023/08/19 06:17:41;;;;;;;;;;;;;;;23.26;61.55;101177.47;5064531;28;19917;-44
2023/08/19 06:20:07;;;;;;;;;;;;;;;23.25;61.83;101171.19;5064938;28;19999;-45
2023/08/19 06:22:32;;;;;;;;;;;;;;;23.25;61.68;101165.78;5063307;28;19964;-46
2023/08/19 06:24:57;;;;;;;;;;;;;;;23.25;61.95;101173.91;5064353;28;19912;-44
2023/08/19 06:27:22;;;;;;;;;;;;;;;23.26;61.97;101177.47;5064039;28;19916;-43
2023/08/19 06:29:48;;;;;;;;;;;;;;;23.26;61.87;101182.88;5064679;28;19939;-43
2023/08/19 06:32:13;;;;;;;;;;;;;;;23.25;61.82;101184.75;5064031;28;19956;-45
2023/08/19 06:34:38;;;;;;;;;;;;;;;23.27;61.99;101179.13;5063958;28;20027;-44
2023/08/19 06:37:04;;;;;;;;;;;;;;;23.26;61.88;101177.47;5064167;28;19924;-46
2023/08/19 06:39:29;;;;;;;;;;;;;;;23.26;61.96;101180.19;5063944;28;20271;-45
2023/08/19 06:42:03;;;;;;;;;;;;;;;23.26;61.88;101180.19;5096290;28;19920;-48
2023/08/19 06:44:29;;;;;;;;;;;;;;;23.26;61.89;101163.91;5063721;28;20277;-45
2023/08/19 06:46:55;;;;;;;;;;;;;;;23.27;62.02;101160.16;5064107;28;19920;-46
2023/08/19 06:49:20;;;;;;;;;;;;;;;23.26;62.26;101162.03;5063814;28;19923;-48
2023/08/19 06:51:46;;;;;;;;;;;;;;;23.26;62.33;101163.91;5063580;28;19916;-47
2023/08/19 06:54:11;;;;;;;;;;;;;;;23.27;62.56;101176.44;5063695;28;20336;-48
2023/08/19 06:56:44;;;;;;;;;;;;;;;23.26;62.53;101162.03;5063936;28;19913;-49
2023/08/19 06:59:19;;;;;;;;;;;;;;;23.27;62.56;101169.13;5096114;28;19938;-48
2023/08/19 07:01:46;;;;;;;;;;;;;;;23.27;62.56;101176.44;5061777;28;20337;-45
2023/08/19 07:04:11;;;;;;;;;;;;;;;23.27;62.71;101169.13;5062369;28;19924;-45
2023/08/19 07:06:37;;;;;;;;;;;;;;;23.28;62.73;101170.81;5063901;28;19913;-45
2023/08/19 07:09:05;;;;;;;;;;;;;;;23.30;62.53;101174.19;5063940;28;19936;-47
2023/08/19 07:11:31;;;;;;;;;;;;;;;23.30;62.50;101185.03;5060425;28;19966;-47
2023/08/19 07:13:57;;;;;;;;;;;;;;;23.30;62.42;101185.03;5060821;28;19932;-52
2023/08/19 07:16:22;;;;;;;;;;;;;;;23.31;62.29;101194.00;5063903;28;19921;-44
2023/08/19 07:18:48;;;;;;;;;;;;;;;23.31;62.36;101189.41;5064053;28;19970;-47
2023/08/19 07:21:13;;;;;;;;;;;;;;;23.32;62.35;101198.38;5061950;28;19916;-46
2023/08/19 07:23:45;;;;;;;;;;;;;;;23.32;62.30;101199.25;5063656;28;19924;-44
2023/08/19 07:26:10;;;;;;;;;;;;;;;23.32;61.99;101192.97;5062718;28;19913;-47
2023/08/19 07:28:36;;;;;;;;;;;;;;;23.34;62.10;101190.91;5063395;28;19917;-47
2023/08/19 07:31:02;;;;;;;;;;;;;;;23.32;62.01;101192.97;5063405;28;19919;-47
2023/08/19 07:33:27;;;;;;;;;;;;;;;23.33;62.03;101200.09;5095937;28;19920;-44
2023/08/19 07:35:52;;;;;;;;;;;;;;;23.33;61.98;101192.78;5067287;28;19920;-45
2023/08/19 07:38:18;;;;;;;;;;;;;;;23.35;62.02;101203.44;5099492;28;19980;-45
2023/08/19 07:40:43;;;;;;;;;;;;;;;23.35;62.01;101207.00;5064802;28;19950;-45
2023/08/19 07:43:09;;;;;;;;;;;;;;;23.36;61.83;101207.84;5062663;28;19929;-46
2023/08/19 07:45:34;;;;;;;;;;;;;;;23.35;61.84;101217.00;5067746;28;19951;-48
2023/08/19 07:47:59;;;;;;;;;;;;;;;23.36;61.79;101218.69;5063587;28;19920;-49
2023/08/19 07:50:24;;;;;;;;;;;;;;;23.35;61.92;101215.13;5065847;28;19927;-49
2023/08/19 07:52:50;;;;;;;;;;;;;;;23.36;61.73;101216.84;5099493;28;19916;-48
2023/08/19 07:55:15;;;;;;;;;;;;;;;23.37;61.78;101215.81;5067049;28;19927;-47
2023/08/19 07:57:40;;;;;;;;;;;;;;;23.38;61.66;101217.47;5064884;28;19974;-47
2023/08/19 08:00:06;;;;;;;;;;;;;;;23.38;61.73;101214.75;5067094;28;19971;-46
2023/08/19 08:02:31;;;;;;;;;;;;;;;23.38;61.59;101214.75;5067418;28;19917;-44
2023/08/19 08:04:56;;;;;;;;;;;;;;;23.39;61.55;101226.44;5065917;28;19951;-47
2023/08/19 08:07:22;;;;;;;;;;;;;;;23.40;61.42;101218.09;5066913;28;19974;-45
2023/08/19 08:09:47;;;;;;;;;;;;;;;23.40;61.51;101220.81;5065597;28;19913;-46
2023/08/19 08:12:13;;;;;;;;;;;;;;;23.40;61.42;101219.97;5066744;28;19963;-50
2023/08/19 08:14:38;;;;;;;;;;;;;;;23.42;61.39;101220.66;5066572;28;19919;-46
2023/08/19 08:17:03;;;;;;;;;;;;;;;23.41;61.57;101224.41;5066496;28;19927;-45
2023/08/19 08:19:28;;;;;;;;;;;;;;;23.41;61.38;101230.66;5066716;28;19917;-45
2023/08/19 08:21:53;;;;;;;;;;;;;;;23.41;61.53;101225.25;5066511;28;20007;-46
2023/08/19 08:24:19;;;;;;;;;;;;;;;23.43;61.52;101230.47;5066769;28;19924;-46
2023/08/19 08:26:44;;;;;;;;;;;;;;;23.44;61.43;101230.25;5066116;28;19917;-48
2023/08/19 08:29:10;;;;;;;;;;;;;;;23.45;61.22;101228.41;5066652;28;19934;-46
2023/08/19 08:31:35;;;;;;;;;;;;;;;23.47;61.30;101222.78;5066558;28;19976;-44
2023/08/19 08:34:00;;;;;;;;;;;;;;;23.47;61.18;101228.22;5066401;28;19923;-44
2023/08/19 08:36:25;;;;;;;;;;;;;;;23.48;61.30;101243.47;5065578;28;20629;-45
2023/08/19 08:38:50;;;;;;;;;;;;;;;23.47;61.27;101225.50;5066686;28;19955;-45
2023/08/19 08:41:16;;;;;;;;;;;;;;;23.48;61.17;101230.72;5066351;28;20308;-44
2023/08/19 08:43:41;;;;;;;;;;;;;;;23.48;61.32;101233.44;5065877;28;19924;-44
2023/08/19 08:46:06;;;;;;;;;;;;;;;23.50;61.06;101244.13;5065703;28;19913;-47
2023/08/19 08:48:32;;;;;;;;;;;;;;;23.51;61.15;101248.50;5065982;28;19917;-46
2023/08/19 08:50:57;;;;;;;;;;;;;;;23.51;61.12;101246.63;5066274;28;19921;-44
2023/08/19 08:53:22;;;;;;;;;;;;;;;23.51;61.05;101259.38;5064806;28;19928;-45
2023/08/19 08:55:48;;;;;;;;;;;;;;;23.51;61.05;101249.34;5064345;28;20023;-46
2023/08/19 08:58:13;;;;;;;;;;;;;;;23.52;61.02;101251.03;5065576;28;19927;-45
2023/08/19 09:00:38;;;;;;;;;;;;;;;23.53;60.98;101241.00;5066394;28;20357;-45
2023/08/19 09:03:04;;;;;;;;;;;;;;;23.53;61.00;101247.28;5066087;28;19916;-47
2023/08/19 09:05:29;;;;;;;;;;;;;;;23.54;61.05;101262.56;5097480;28;19917;-45
2023/08/19 09:07:54;;;;;;;;;;;;;;;23.55;60.80;101266.94;5065878;28;19952;-46
2023/08/19 09:10:20;;;;;;;;;;;;;;;23.55;60.98;101274.25;5066144;28;19916;-48
2023/08/19 09:12:47;;;;;;;;;;;;;;;23.56;61.03;101278.63;5097972;28;19917;-45
2023/08/19 09:15:13;;;;;;;;;;;;;;;23.56;60.86;101278.63;5065945;28;19913;-45
2023/08/19 09:17:39;;;;;;;;;;;;;;;23.56;60.86;101276.75;5065621;28;19977;-45
2023/08/19 09:20:04;;;;;;;;;;;;;;;23.57;60.91;101277.59;5065520;28;19976;-46
2023/08/19 09:22:30;;;;;;;;;;;;;;;23.56;60.88;101274.03;5097827;28;19921;-46
2023/08/19 09:24:56;;;;;;;;;;;;;;;23.57;60.92;101272.16;5065009;28;20388;-44
2023/08/19 09:27:29;;;;;;;;;;;;;;;23.58;60.78;101265.72;5064002;28;20281;-46
2023/08/19 09:29:55;;;;;;;;;;;;;;;23.57;60.85;101256.72;5064049;28;19984;-45
2023/08/19 09:32:27;;;;;;;;;;;;;;;23.57;61.00;101266.75;5065478;28;19913;-47
2023/08/19 09:35:04;;;;;;;;;;;;;;;23.58;60.70;101282.03;5064158;28;19917;-44
2023/08/19 09:37:30;;;;;;;;;;;;;;;23.56;60.69;101274.03;5065054;28;19913;-46
2023/08/19 09:39:56;;;;;;;;;;;;;;;23.57;61.10;101283.03;5065510;28;19927;-45
2023/08/19 09:42:21;;;;;;;;;;;;;;;23.56;60.78;101287.63;5065310;28;19921;-48
2023/08/19 09:44:46;;;;;;;;;;;;;;;23.57;61.00;101294.72;5097369;28;19960;-45
2023/08/19 09:47:11;;;;;;;;;;;;;;;23.57;60.96;101294.72;5064812;28;19912;-46
2023/08/19 09:49:37;;;;;;;;;;;;;;;23.58;60.78;101301.84;5064789;28;19924;-43
2023/08/19 09:52:02;;;;;;;;;;;;;;;23.58;60.71;101306.44;5064534;28;20386;-48
2023/08/19 09:54:28;;;;;;;;;;;;;;;23.56;60.85;101293.03;5064988;28;20585;-45
2023/08/19 09:56:54;;;;;;;;;;;;;;;23.56;61.11;101301.19;5064229;28;19927;-45
2023/08/19 09:59:19;;;;;;;;;;;;;;;23.54;61.03;101305.97;5065577;28;20329;-46
2023/08/19 10:01:44;;;;;;;;;;;;;;;23.55;60.92;101306.81;5065205;28;19921;-46
2023/08/19 10:04:09;;;;;;;;;;;;;;;23.55;61.13;101318.50;5064657;28;19912;-45
2023/08/19 10:06:36;;;;;;;;;;;;;;;23.57;61.08;101342.75;5064316;28;19916;-45
2023/08/19 10:09:05;;;;;;;;;;;;;;;23.57;61.05;101331.88;5097237;28;19970;-44
2023/08/19 10:11:31;;;;;;;;;;;;;;;23.57;61.13;101346.28;5064770;28;19912;-45
2023/08/19 10:13:58;;;;;;;;;;;;;;;23.55;61.13;101340.22;5064433;28;19921;-46
2023/08/19 10:16:24;;;;;;;;;;;;;;;23.56;60.91;101344.63;5062560;28;19924;-45
2023/08/19 10:18:49;;;;;;;;;;;;;;;23.57;61.03;101337.31;5064516;28;19913;-44
2023/08/19 10:21:14;;;;;;;;;;;;;;;23.58;60.93;101345.28;5063393;28;19916;-45
2023/08/19 10:23:40;;;;;;;;;;;;;;;23.60;61.08;101347.81;5063771;28;20412;-46
2023/08/19 10:26:06;;;;;;;;;;;;;;;23.61;60.94;101338.63;5096557;28;19944;-46
2023/08/19 10:28:31;;;;;;;;;;;;;;;23.60;60.95;101345.91;5096543;28;19916;-43
2023/08/19 10:31:15;;;;;;;;;;;;;;;23.62;61.12;101345.75;5064935;28;19919;-46
2023/08/19 10:33:42;;;;;;;;;;;;;;;23.60;61.02;101350.50;5063811;28;19921;-45
2023/08/19 10:36:08;;;;;;;;;;;;;;;23.59;61.13;101355.09;5060922;28;19920;-44
2023/08/19 10:39:07;;;;;;;;;;;;;;;23.59;61.20;101356.97;5062848;28;19916;-44
2023/08/19 10:41:37;;;;;;;;;;;;;;;23.59;61.26;101352.38;5064320;28;19913;-44
2023/08/19 10:44:06;;;;;;;;;;;;;;;23.62;61.47;101353.91;5063753;28;19935;-45
2023/08/19 10:46:36;;;;;;;;;;;;;;;23.64;61.93;101351.81;5095206;28;19940;-47
2023/08/19 10:49:02;;;;;;;;;;;;;;;23.66;62.27;101355.19;5062280;28;19977;-48
2023/08/19 10:51:48;;;;;;;;;;;;;;;23.67;62.31;101363.19;5064017;28;19913;-45
2023/08/19 10:54:14;;;;;;;;;;;;;;;23.68;62.14;101355.88;5063660;28;19921;-45
2023/08/19 10:56:58;;;;;;;;;;;;;;;23.68;62.28;101358.59;5063847;28;20038;-46
2023/08/19 10:59:23;;;;;;;;;;;;;;;23.73;62.36;101369.72;5064942;28;19917;-45
2023/08/19 11:01:50;;;;;;;;;;;;;;;23.77;62.35;101362.88;5096321;28;19967;-44
2023/08/19 11:04:15;;;;;;;;;;;;;;;23.76;62.20;101363.91;5061796;28;19928;-45
2023/08/19 11:06:40;;;;;;;;;;;;;;;23.78;62.27;101363.72;5059232;28;19917;-46
2023/08/19 11:09:07;;;;;;;;;;;;;;;23.77;62.38;101368.31;5063291;28;19942;-45
2023/08/19 11:11:32;;;;;;;;;;;;;;;23.77;62.49;101362.88;5063976;28;19916;-48
2023/08/19 11:13:57;;;;;;;;;;;;;;;23.76;62.53;101363.06;5095445;28;19927;-46
2023/08/19 11:16:27;;;;;;;;;;;;;;;23.76;62.65;101368.50;5061519;28;19980;-46
2023/08/19 11:18:53;;;;;;;;;;;;;;;23.74;62.91;101365.97;5063683;28;20007;-45
2023/08/19 11:21:18;;;;;;;;;;;;;;;23.75;63.34;101366.81;5063835;28;19912;-47
2023/08/19 11:23:43;;;;;;;;;;;;;;;23.76;63.47;101376.66;5063224;28;19925;-48
2023/08/19 11:26:08;;;;;;;;;;;;;;;23.75;63.74;101377.69;5063551;28;20007;-49
2023/08/19 11:28:35;;;;;;;;;;;;;;;23.77;63.89;101383.75;5063527;28;19913;-45
2023/08/19 11:31:00;;;;;;;;;;;;;;;23.75;63.89;101386.69;5063729;28;19920;-47
2023/08/19 11:33:28;;;;;;;;;;;;;;;23.76;63.89;101392.94;5095437;28;19927;-45
2023/08/19 11:35:53;;;;;;;;;;;;;;;23.76;64.08;101398.38;5060336;28;19977;-44
2023/08/19 11:38:18;;;;;;;;;;;;;;;23.75;63.97;101407.56;5063686;28;20391;-44
2023/08/19 11:40:43;;;;;;;;;;;;;;;23.75;63.77;101413.81;5063289;28;20014;-50
2023/08/19 11:43:09;;;;;;;;;;;;;;;23.76;64.01;101406.53;5063352;28;19976;-47
2023/08/19 11:45:36;;;;;;;;;;;;;;;23.75;63.91;101419.25;5095750;28;19913;-50
2023/08/19 11:48:01;;;;;;;;;;;;;;;23.76;63.76;101430.94;5063715;28;19980;-45
2023/08/19 11:50:29;;;;;;;;;;;;;;;23.76;63.79;101436.38;5063602;28;19920;-46
2023/08/19 11:52:55;;;;;;;;;;;;;;;23.75;63.91;101443.69;5062380;28;19921;-47
2023/08/19 11:55:20;;;;;;;;;;;;;;;23.75;63.85;101456.44;5063145;28;19913;-47
2023/08/19 11:57:45;;;;;;;;;;;;;;;23.76;63.93;101468.97;5063132;28;19920;-45
2023/08/19 12:00:15;;;;;;;;;;;;;;;23.76;63.72;101479.81;5064012;28;20368;-47
2023/08/19 12:02:40;;;;;;;;;;;;;;;23.75;63.92;101489.84;5063001;28;19924;-47
2023/08/19 12:05:06;;;;;;;;;;;;;;;23.77;63.89;101500.50;5060032;28;20289;-48
2023/08/19 12:07:31;;;;;;;;;;;;;;;23.75;63.68;101489.84;5091927;28;19970;-45
2023/08/19 12:09:57;;;;;;;;;;;;;;;23.74;63.86;101492.72;5054815;28;19931;-48
2023/08/19 12:12:22;;;;;;;;;;;;;;;23.74;63.77;101507.16;5061115;28;19959;-46
2023/08/19 12:14:47;;;;;;;;;;;;;;;23.73;63.95;101513.63;5061731;28;19917;-48
2023/08/19 12:17:13;;;;;;;;;;;;;;;23.73;63.97;101527.19;5062909;28;20308;-48
2023/08/19 12:19:38;;;;;;;;;;;;;;;23.72;64.12;101527.38;5063203;28;20523;-48
2023/08/19 12:22:04;;;;;;;;;;;;;;;23.74;63.87;101523.44;5065761;28;19916;-48
2023/08/19 12:24:29;;;;;;;;;;;;;;;23.75;63.88;101513.44;5066939;28;19937;-44
2023/08/19 12:26:54;;;;;;;;;;;;;;;23.77;63.90;101523.06;5066302;28;20259;-48
2023/08/19 12:29:19;;;;;;;;;;;;;;;23.78;64.12;101537.50;5054102;28;20759;-45